Time;durP1;ratioP1;P1;durP2;ratioP2;P2;SDS_P1;SDS_P2;PMS_P1;PMS_P2;Temp;Humidity;BMP_temperature;BMP_pressure;BME280_temperature;BME280_humidity;BME280_pressure;Samples;Min_cycle;Max_cycle;Signal;HPM_P1;HPM_P2
2022/04/05 00:01:13;;;;;;;0.50;0.50;;;3.90;99.90;;;;;;5078046;28;20464;-73
2022/04/05 00:03:38;;;;;;;1.15;0.60;;;3.90;99.90;;;;;;5064522;28;20089;-73
2022/04/05 00:06:04;;;;;;;0.50;0.50;;;3.90;99.90;;;;;;5063426;28;20504;-73
2022/04/05 00:08:29;;;;;;;0.63;0.43;;;3.90;99.90;;;;;;5071439;28;20408;-73
2022/04/05 00:10:56;;;;;;;0.52;0.52;;;3.90;99.90;;;;;;5056868;28;20101;-72
2022/04/05 00:13:21;;;;;;;0.80;0.70;;;3.90;99.90;;;;;;5070005;28;20040;-73
2022/04/05 00:15:47;;;;;;;1.73;0.65;;;4.00;99.90;;;;;;5078838;28;20070;-72
2022/04/05 00:18:13;;;;;;;0.98;0.50;;;4.00;99.90;;;;;;5059775;28;20647;-72
2022/04/05 00:20:39;;;;;;;0.30;0.30;;;4.00;99.90;;;;;;5045046;28;20037;-72
2022/04/05 00:23:05;;;;;;;0.68;0.57;;;4.00;99.90;;;;;;5052188;28;20492;-72
2022/04/05 00:25:31;;;;;;;0.70;0.60;;;4.00;99.90;;;;;;5064090;28;20044;-72
2022/04/05 00:27:57;;;;;;;0.50;0.47;;;4.00;99.90;;;;;;5059977;28;20041;-72
2022/04/05 00:30:23;;;;;;;0.43;0.43;;;4.00;99.90;;;;;;5043646;28;20056;-72
2022/04/05 00:32:49;;;;;;;0.45;0.45;;;4.10;99.90;;;;;;5045791;28;20037;-72
2022/04/05 00:35:14;;;;;;;0.90;0.52;;;4.10;99.90;;;;;;5045505;28;20041;-73
2022/04/05 00:37:40;;;;;;;0.57;0.52;;;4.10;99.90;;;;;;5047314;28;20108;-72
2022/04/05 00:40:07;;;;;;;0.70;0.70;;;4.10;99.90;;;;;;5047042;28;20817;-72
2022/04/05 00:42:34;;;;;;;1.17;0.95;;;4.10;99.90;;;;;;5045667;28;20424;-71
2022/04/05 00:44:59;;;;;;;0.70;0.60;;;4.10;99.90;;;;;;5055491;28;20032;-73
2022/04/05 00:47:25;;;;;;;0.50;0.50;;;4.20;99.90;;;;;;5045206;28;20045;-73
2022/04/05 00:49:53;;;;;;;0.70;0.47;;;4.20;99.90;;;;;;5063816;28;20040;-68
2022/04/05 00:52:20;;;;;;;1.25;0.70;;;4.20;99.90;;;;;;5063478;28;20131;-71
2022/04/05 00:54:47;;;;;;;1.05;0.70;;;4.20;99.90;;;;;;5065363;28;20032;-71
2022/04/05 00:57:17;;;;;;;1.17;0.80;;;4.30;99.90;;;;;;5056054;28;20130;-71
2022/04/05 00:59:46;;;;;;;1.33;0.70;;;4.30;99.90;;;;;;5054313;28;20037;-71
2022/04/05 01:02:22;;;;;;;1.23;0.70;;;4.30;99.90;;;;;;5043115;28;20033;-70
2022/04/05 01:04:49;;;;;;;1.00;0.70;;;4.30;99.90;;;;;;5044747;28;20673;-71
2022/04/05 01:07:17;;;;;;;0.70;0.60;;;4.30;99.90;;;;;;5054046;28;20056;-72
2022/04/05 01:09:55;;;;;;;1.10;0.80;;;4.40;99.90;;;;;;5052186;28;20110;-71
2022/04/05 01:12:22;;;;;;;1.30;0.88;;;4.40;99.90;;;;;;5044555;28;20683;-71
2022/04/05 01:14:49;;;;;;;1.00;0.90;;;4.40;99.90;;;;;;5058776;28;20543;-70
2022/04/05 01:17:16;;;;;;;1.48;1.00;;;4.40;99.90;;;;;;5064599;28;20052;-72
2022/04/05 01:19:42;;;;;;;1.20;0.90;;;4.40;99.90;;;;;;5050124;28;20646;-71
2022/04/05 01:22:08;;;;;;;0.90;0.60;;;4.50;99.90;;;;;;5044712;28;20538;-71
2022/04/05 01:24:33;;;;;;;4.60;0.82;;;4.50;99.90;;;;;;5044731;28;20044;-71
2022/04/05 01:27:04;;;;;;;0.63;0.60;;;4.50;99.90;;;;;;5044694;28;20041;-71
2022/04/05 01:29:30;;;;;;;1.55;1.00;;;4.50;99.90;;;;;;5042151;28;20143;-72
2022/04/05 01:32:02;;;;;;;1.27;0.95;;;4.50;99.90;;;;;;5042478;28;20041;-71
2022/04/05 01:34:29;;;;;;;1.00;0.77;;;4.50;99.90;;;;;;5052921;28;20036;-71
2022/04/05 01:36:58;;;;;;;1.05;0.80;;;4.50;99.90;;;;;;5060577;28;20050;-71
2022/04/05 01:39:26;;;;;;;1.95;0.98;;;4.60;99.90;;;;;;5044010;28;20579;-72
2022/04/05 01:41:56;;;;;;;0.95;0.80;;;4.60;99.90;;;;;;5058984;28;20056;-70
2022/04/05 01:44:22;;;;;;;1.02;0.85;;;4.60;99.90;;;;;;5050350;28;20033;-70
2022/04/05 01:46:48;;;;;;;0.88;0.80;;;4.60;99.90;;;;;;5054696;28;20106;-71
2022/04/05 01:49:14;;;;;;;1.48;0.85;;;4.60;99.90;;;;;;5044154;28;20055;-70
2022/04/05 01:51:40;;;;;;;1.23;0.90;;;4.60;99.90;;;;;;5043853;28;20045;-71
2022/04/05 01:54:08;;;;;;;1.58;0.88;;;4.60;99.90;;;;;;5043599;28;20041;-71
2022/04/05 01:56:39;;;;;;;0.70;0.60;;;4.70;99.90;;;;;;5043893;28;20433;-70
2022/04/05 01:59:05;;;;;;;2.67;1.08;;;4.70;99.90;;;;;;5044247;28;20049;-71
2022/04/05 02:01:31;;;;;;;0.88;0.70;;;4.70;99.90;;;;;;5049853;28;20094;-70
2022/04/05 02:03:57;;;;;;;0.98;0.80;;;4.80;99.90;;;;;;5043465;28;20386;-70
2022/04/05 02:06:23;;;;;;;0.75;0.70;;;4.80;99.90;;;;;;5063288;28;20047;-70
2022/04/05 02:08:49;;;;;;;1.60;0.88;;;4.80;99.90;;;;;;5045290;28;20044;-70
2022/04/05 02:11:14;;;;;;;1.00;0.57;;;4.80;99.90;;;;;;5043472;28;20044;-70
2022/04/05 02:13:40;;;;;;;0.90;0.65;;;4.90;99.90;;;;;;5043366;28;20051;-70
2022/04/05 02:16:06;;;;;;;2.00;0.70;;;4.90;99.90;;;;;;5060261;28;20092;-70
2022/04/05 02:18:31;;;;;;;0.80;0.70;;;4.90;99.90;;;;;;5063227;28;20033;-71
2022/04/05 02:20:57;;;;;;;0.85;0.70;;;4.90;99.90;;;;;;5063589;28;20048;-71
2022/04/05 02:23:23;;;;;;;0.98;0.70;;;5.00;99.90;;;;;;5063429;28;20040;-70
2022/04/05 02:25:49;;;;;;;0.90;0.75;;;5.00;99.90;;;;;;5063278;28;20480;-70
2022/04/05 02:28:14;;;;;;;3.20;0.70;;;5.10;99.90;;;;;;5063389;28;20092;-70
2022/04/05 02:30:43;;;;;;;0.70;0.57;;;5.10;99.90;;;;;;5050657;28;20111;-70
2022/04/05 02:33:09;;;;;;;0.68;0.60;;;5.10;99.90;;;;;;5038403;28;20044;-71
2022/04/05 02:35:34;;;;;;;1.45;0.68;;;5.10;99.90;;;;;;5046613;28;20501;-70
2022/04/05 02:38:01;;;;;;;1.20;0.70;;;5.10;99.90;;;;;;5046107;28;20485;-71
2022/04/05 02:40:27;;;;;;;0.68;0.50;;;5.10;99.90;;;;;;5050614;28;20114;-70
2022/04/05 02:42:54;;;;;;;0.68;0.50;;;5.10;99.90;;;;;;5062998;28;20064;-70
2022/04/05 02:45:20;;;;;;;0.47;0.40;;;5.10;99.90;;;;;;5054363;28;20044;-70
2022/04/05 02:47:45;;;;;;;1.10;0.40;;;5.20;99.90;;;;;;5041177;28;20037;-70
2022/04/05 02:50:11;;;;;;;0.57;0.40;;;5.10;99.90;;;;;;5045884;28;20048;-70
2022/04/05 02:52:37;;;;;;;;;;;5.20;99.90;;;;;;5063017;28;20557;-70
2022/04/05 02:55:04;;;;;;;2.65;0.57;;;5.30;99.90;;;;;;5059496;28;19920;-70
2022/04/05 02:57:30;;;;;;;0.35;0.35;;;5.30;99.90;;;;;;5042777;28;20051;-70
2022/04/05 02:59:56;;;;;;;0.40;0.40;;;5.20;99.90;;;;;;5042137;28;20232;-70
2022/04/05 03:02:22;;;;;;;0.35;0.30;;;5.20;99.90;;;;;;5061929;28;20120;-70
2022/04/05 03:04:48;;;;;;;0.35;0.30;;;5.20;99.90;;;;;;5061907;28;20591;-70
2022/04/05 03:07:15;;;;;;;0.10;0.10;;;5.10;99.90;;;;;;5044679;28;20041;-70
2022/04/05 03:09:41;;;;;;;0.28;0.28;;;5.00;99.90;;;;;;5042080;28;20059;-69
2022/04/05 03:12:07;;;;;;;0.47;0.30;;;4.90;99.90;;;;;;5074983;28;20032;-70
2022/04/05 03:14:33;;;;;;;0.30;0.30;;;4.80;99.90;;;;;;5061985;28;20044;-70
2022/04/05 03:16:58;;;;;;;0.35;0.32;;;4.80;99.90;;;;;;5045904;28;20044;-70
2022/04/05 03:19:24;;;;;;;0.50;0.40;;;4.80;99.90;;;;;;5042592;28;20132;-71
2022/04/05 03:21:49;;;;;;;0.30;0.30;;;4.70;99.90;;;;;;5054598;28;20068;-70
2022/04/05 03:24:15;;;;;;;0.93;0.40;;;4.70;99.90;;;;;;5061791;28;20052;-70
2022/04/05 03:26:41;;;;;;;0.20;0.20;;;4.70;99.90;;;;;;5049974;28;20033;-70
2022/04/05 03:29:25;;;;;;;0.70;0.30;;;4.70;99.90;;;;;;5041578;28;20186;-70
2022/04/05 03:32:11;;;;;;;1.25;0.50;;;4.60;99.90;;;;;;5057252;28;20086;-70
2022/04/05 03:34:38;;;;;;;0.28;0.28;;;4.50;99.90;;;;;;5059431;28;20032;-70
2022/04/05 03:37:04;;;;;;;0.90;0.30;;;4.50;99.90;;;;;;5041343;28;20500;-70
2022/04/05 03:39:29;;;;;;;0.47;0.30;;;4.50;99.90;;;;;;5042228;28;20102;-70
2022/04/05 03:42:04;;;;;;;0.32;0.30;;;4.50;99.90;;;;;;5054550;28;20469;-70
2022/04/05 03:44:30;;;;;;;2.25;0.30;;;4.50;99.90;;;;;;5046302;28;20045;-70
2022/04/05 03:46:57;;;;;;;0.30;0.20;;;4.40;99.90;;;;;;5049913;28;20116;-70
2022/04/05 03:49:23;;;;;;;1.33;0.40;;;4.40;99.90;;;;;;5033411;28;20048;-70
2022/04/05 03:51:48;;;;;;;0.30;0.30;;;4.40;99.90;;;;;;5044081;28;20041;-69
2022/04/05 03:54:14;;;;;;;0.30;0.30;;;4.50;99.90;;;;;;5044739;28;20052;-70
2022/04/05 03:56:39;;;;;;;0.55;0.20;;;4.40;99.90;;;;;;5051485;28;20552;-70
2022/04/05 03:59:05;;;;;;;1.85;0.40;;;4.40;99.90;;;;;;5044740;28;20098;-70
2022/04/05 04:01:31;;;;;;;0.32;0.30;;;4.50;99.90;;;;;;5050188;28;20075;-70
2022/04/05 04:03:56;;;;;;;2.17;0.40;;;4.50;99.90;;;;;;5045523;28;20087;-73
2022/04/05 04:06:22;;;;;;;0.52;0.35;;;4.50;99.90;;;;;;5045345;28;20041;-72
2022/04/05 04:08:47;;;;;;;1.85;0.20;;;4.60;99.90;;;;;;5045699;28;20588;-72
2022/04/05 04:11:13;;;;;;;0.38;0.30;;;4.50;99.90;;;;;;5047376;28;20123;-70
2022/04/05 04:13:39;;;;;;;4.10;0.43;;;4.60;99.90;;;;;;5064514;28;20115;-69
2022/04/05 04:16:05;;;;;;;1.05;0.30;;;4.60;99.90;;;;;;5065432;28;20611;-69
2022/04/05 04:18:31;;;;;;;1.65;0.40;;;4.60;99.90;;;;;;5045869;28;20068;-72
2022/04/05 04:20:57;;;;;;;0.90;0.30;;;4.60;99.90;;;;;;5045827;28;20087;-72
2022/04/05 04:23:23;;;;;;;0.25;0.20;;;4.60;99.90;;;;;;5064221;28;20072;-71
2022/04/05 04:25:48;;;;;;;2.78;0.47;;;4.60;99.90;;;;;;5057204;28;20080;-76
2022/04/05 04:28:14;;;;;;;1.40;0.60;;;4.60;99.90;;;;;;5051703;28;20056;-70
2022/04/05 04:30:40;;;;;;;1.13;0.28;;;4.50;99.90;;;;;;5044226;28;20041;-71
2022/04/05 04:33:08;;;;;;;2.35;0.70;;;4.60;99.90;;;;;;5043651;28;20532;-67
2022/04/05 04:35:37;;;;;;;1.23;0.35;;;4.50;99.90;;;;;;5043769;28;20036;-68
2022/04/05 04:38:03;;;;;;;1.92;0.30;;;4.60;99.90;;;;;;5046100;28;20127;-68
2022/04/05 04:40:29;;;;;;;0.40;0.22;;;4.60;99.90;;;;;;5040452;28;20544;-71
2022/04/05 04:42:54;;;;;;;0.40;0.30;;;4.60;99.90;;;;;;5044834;28;20043;-71
2022/04/05 04:45:21;;;;;;;0.50;0.38;;;4.50;99.90;;;;;;5044519;28;20544;-70
2022/04/05 04:47:46;;;;;;;2.38;0.40;;;4.60;99.90;;;;;;5050502;28;20045;-71
2022/04/05 04:50:12;;;;;;;0.20;0.20;;;4.60;99.90;;;;;;5033700;28;20057;-70
2022/04/05 04:52:38;;;;;;;2.55;0.50;;;4.60;99.90;;;;;;5051813;28;20044;-70
2022/04/05 04:55:06;;;;;;;0.20;0.20;;;4.50;99.90;;;;;;5064543;28;20044;-70
2022/04/05 04:57:31;;;;;;;1.10;0.20;;;4.60;99.90;;;;;;5048380;28;20171;-70
2022/04/05 04:59:57;;;;;;;4.38;0.45;;;4.60;99.90;;;;;;5036812;28;20406;-71
2022/04/05 05:02:23;;;;;;;0.63;0.20;;;4.60;99.90;;;;;;5038892;28;20895;-70
2022/04/05 05:04:52;;;;;;;0.93;0.30;;;4.60;99.90;;;;;;5032368;28;20045;-71
2022/04/05 05:07:18;;;;;;;3.42;0.38;;;4.70;99.90;;;;;;5035078;28;20037;-69
2022/04/05 05:09:44;;;;;;;0.73;0.30;;;4.70;99.90;;;;;;5052552;28;20033;-70
2022/04/05 05:12:10;;;;;;;1.70;0.20;;;4.70;99.90;;;;;;5038038;28;20087;-71
2022/04/05 05:14:39;;;;;;;0.93;0.30;;;4.70;99.90;;;;;;5032096;28;20120;-70
2022/04/05 05:17:06;;;;;;;3.33;0.40;;;4.70;99.90;;;;;;5032134;28;20049;-70
2022/04/05 05:19:33;;;;;;;0.47;0.30;;;4.70;99.90;;;;;;5033319;28;20459;-71
2022/04/05 05:21:58;;;;;;;0.30;0.30;;;4.70;99.90;;;;;;5031122;28;20029;-70
2022/04/05 05:24:24;;;;;;;0.60;0.28;;;4.70;99.90;;;;;;5055233;28;20059;-70
2022/04/05 05:26:53;;;;;;;1.40;0.20;;;4.80;99.90;;;;;;5032491;28;20046;-71
2022/04/05 05:29:21;;;;;;;0.20;0.20;;;4.80;99.90;;;;;;5038392;28;20103;-71
2022/04/05 05:31:47;;;;;;;4.55;0.40;;;4.80;99.90;;;;;;5035001;28;20056;-70
2022/04/05 05:34:18;;;;;;;0.30;0.30;;;4.80;99.90;;;;;;5036643;28;20481;-70
2022/04/05 05:36:44;;;;;;;2.50;0.30;;;4.80;99.90;;;;;;5031277;28;20171;-70
2022/04/05 05:39:09;;;;;;;1.27;0.30;;;4.90;99.90;;;;;;5042245;28;20522;-70
2022/04/05 05:41:35;;;;;;;1.38;0.45;;;4.90;99.90;;;;;;5032702;28;20608;-70
2022/04/05 05:44:00;;;;;;;0.90;0.30;;;4.90;99.90;;;;;;5036138;28;20040;-70
2022/04/05 05:46:26;;;;;;;1.08;0.50;;;4.90;99.90;;;;;;5038629;28;20090;-70
2022/04/05 05:48:51;;;;;;;1.13;0.40;;;4.90;99.90;;;;;;5040429;28;20025;-70
2022/04/05 05:51:17;;;;;;;0.60;0.30;;;4.80;99.90;;;;;;5036170;28;20033;-70
2022/04/05 05:53:42;;;;;;;2.45;0.50;;;4.90;99.90;;;;;;5036050;28;20045;-69
2022/04/05 05:56:08;;;;;;;0.80;0.30;;;4.90;99.90;;;;;;5032094;28;20822;-70
2022/04/05 05:58:34;;;;;;;0.55;0.38;;;4.90;99.90;;;;;;5042301;28;20040;-70
2022/04/05 06:00:59;;;;;;;1.60;0.38;;;4.90;99.90;;;;;;5039656;28;20068;-70
2022/04/05 06:03:25;;;;;;;;;;;5.00;99.90;;;;;;5047558;28;20044;-70
2022/04/05 06:05:50;;;;;;;3.60;0.40;;;5.00;99.90;;;;;;5062962;28;19982;-70
2022/04/05 06:08:17;;;;;;;2.30;0.73;;;5.00;99.90;;;;;;5050321;28;20032;-71
2022/04/05 06:10:42;;;;;;;0.40;0.30;;;4.90;99.90;;;;;;5059194;28;20047;-70
2022/04/05 06:13:08;;;;;;;0.47;0.40;;;5.00;99.90;;;;;;5045897;28;20405;-70
2022/04/05 06:15:34;;;;;;;3.67;0.40;;;5.00;99.90;;;;;;5062237;28;20041;-70
2022/04/05 06:18:00;;;;;;;1.00;0.82;;;5.10;99.90;;;;;;5045617;28;20037;-71
2022/04/05 06:20:27;;;;;;;0.80;0.47;;;5.10;99.90;;;;;;5042546;28;20102;-69
2022/04/05 06:23:02;;;;;;;0.63;0.50;;;5.10;99.90;;;;;;5042848;28;20082;-70
2022/04/05 06:25:37;;;;;;;1.63;0.45;;;5.20;99.90;;;;;;5037848;28;20041;-68
2022/04/05 06:28:05;;;;;;;4.43;0.50;;;5.20;99.90;;;;;;5041914;28;20036;-68
2022/04/05 06:30:33;;;;;;;1.38;0.60;;;5.20;99.90;;;;;;5029230;22;20056;-67
2022/04/05 06:33:06;;;;;;;3.03;0.45;;;5.20;99.90;;;;;;5042822;28;20586;-70
2022/04/05 06:35:31;;;;;;;1.00;0.40;;;5.20;99.90;;;;;;5040559;28;20040;-70
2022/04/05 06:37:57;;;;;;;2.08;0.95;;;5.30;99.90;;;;;;5042699;28;20033;-70
2022/04/05 06:40:23;;;;;;;0.85;0.50;;;5.40;99.90;;;;;;5042040;28;20183;-70
2022/04/05 06:42:49;;;;;;;3.78;0.75;;;5.40;99.90;;;;;;5042185;28;20157;-70
2022/04/05 06:45:19;;;;;;;1.10;0.60;;;5.40;99.90;;;;;;5041898;28;20601;-70
2022/04/05 06:47:45;;;;;;;1.58;0.70;;;5.40;99.90;;;;;;5041115;28;20071;-68
2022/04/05 06:50:14;;;;;;;0.80;0.47;;;5.40;99.90;;;;;;5042524;28;20536;-71
2022/04/05 06:52:41;;;;;;;0.82;0.60;;;5.50;99.90;;;;;;5024431;28;20036;-70
2022/04/05 06:55:09;;;;;;;1.17;0.63;;;5.60;99.90;;;;;;5041355;28;20140;-70
2022/04/05 06:57:36;;;;;;;0.90;0.50;;;5.60;99.90;;;;;;5042419;28;20080;-70
2022/04/05 07:00:06;;;;;;;0.80;0.50;;;5.60;99.90;;;;;;5041858;28;20505;-70
2022/04/05 07:02:32;;;;;;;1.02;0.90;;;5.60;99.90;;;;;;5040881;28;20117;-70
2022/04/05 07:04:57;;;;;;;1.42;0.70;;;5.60;99.90;;;;;;5032626;28;20496;-70
2022/04/05 07:07:23;;;;;;;1.08;0.60;;;5.60;99.90;;;;;;5028115;28;20041;-70
2022/04/05 07:09:48;;;;;;;1.60;0.85;;;5.60;99.90;;;;;;5041192;28;20044;-70
2022/04/05 07:12:14;;;;;;;0.40;0.40;;;5.50;99.90;;;;;;5040846;28;20409;-70
2022/04/05 07:14:40;;;;;;;;;;;5.50;99.90;;;;;;5034650;28;20060;-70
2022/04/05 07:17:05;;;;;;;1.52;0.82;;;5.60;99.90;;;;;;5021091;28;19920;-70
2022/04/05 07:19:33;;;;;;;;;;;5.60;99.90;;;;;;5036195;23;20037;-70
2022/04/05 07:22:14;;;;;;;9.60;0.88;;;5.60;99.90;;;;;;5053767;28;20015;-70
2022/04/05 07:24:39;;;;;;;4.50;1.10;;;5.70;99.90;;;;;;5061786;28;20148;-69
2022/04/05 07:27:05;;;;;;;;;;;5.70;99.90;;;;;;5062986;28;20040;-70
2022/04/05 07:29:31;;;;;;;0.80;0.70;;;5.80;99.90;;;;;;5066881;28;19977;-69
2022/04/05 07:31:56;;;;;;;1.40;0.70;;;5.80;99.90;;;;;;5066034;28;20044;-69
2022/04/05 07:34:22;;;;;;;0.85;0.60;;;5.80;99.90;;;;;;5067253;28;20056;-69
2022/04/05 07:36:49;;;;;;;;;;;5.90;99.90;;;;;;5066942;28;20044;-68
2022/04/05 07:39:19;;;;;;;2.58;0.70;;;5.90;99.90;;;;;;5066520;28;20028;-70
2022/04/05 07:41:45;;;;;;;1.67;0.80;;;5.90;99.90;;;;;;5065793;28;20040;-71
2022/04/05 07:44:10;;;;;;;3.78;0.85;;;5.90;99.90;;;;;;5066312;28;20069;-69
2022/04/05 07:46:36;;;;;;;0.70;0.50;;;6.00;99.90;;;;;;5064879;28;20128;-70
2022/04/05 07:49:02;;;;;;;0.55;0.47;;;6.00;99.90;;;;;;5066048;28;20083;-70
2022/04/05 07:51:28;;;;;;;0.40;0.40;;;6.00;99.90;;;;;;5066080;28;20063;-69
2022/04/05 07:53:53;;;;;;;0.40;0.40;;;6.10;99.90;;;;;;5065095;28;20036;-69
2022/04/05 07:56:19;;;;;;;2.20;0.50;;;6.20;99.90;;;;;;5064046;28;20063;-69
2022/04/05 07:58:45;;;;;;;0.30;0.30;;;6.20;99.90;;;;;;5065423;28;20045;-69
2022/04/05 08:01:11;;;;;;;;;;;6.30;99.90;;;;;;5064230;28;20531;-69
2022/04/05 08:03:37;;;;;;;0.57;0.50;;;6.30;99.90;;;;;;5065882;28;19943;-69
2022/04/05 08:06:03;;;;;;;0.45;0.35;;;6.30;99.90;;;;;;5053421;28;20058;-69
2022/04/05 08:08:30;;;;;;;0.77;0.30;;;6.40;99.90;;;;;;5060594;28;20108;-69
2022/04/05 08:10:56;;;;;;;0.45;0.32;;;6.40;99.90;;;;;;5065543;28;20071;-70
2022/04/05 08:13:22;;;;;;;0.30;0.30;;;6.40;99.90;;;;;;5066374;28;20040;-68
2022/04/05 08:15:48;;;;;;;2.45;0.40;;;6.40;99.90;;;;;;5064574;28;20051;-68
2022/04/05 08:18:14;;;;;;;1.70;0.50;;;6.40;99.90;;;;;;5064975;28;20036;-68
2022/04/05 08:20:41;;;;;;;0.93;0.40;;;6.40;99.90;;;;;;5065681;28;20170;-70
2022/04/05 08:23:15;;;;;;;0.73;0.40;;;6.50;99.90;;;;;;5066721;28;20103;-72
2022/04/05 08:25:41;;;;;;;0.85;0.50;;;6.50;99.90;;;;;;5066409;28;20076;-71
2022/04/05 08:28:07;;;;;;;;;;;6.50;99.90;;;;;;5066013;28;20033;-70
2022/04/05 08:30:33;;;;;;;0.63;0.45;;;6.50;99.90;;;;;;5064765;28;19919;-73
2022/04/05 08:32:59;;;;;;;0.40;0.35;;;6.60;99.90;;;;;;5065945;28;20382;-70
2022/04/05 08:35:25;;;;;;;0.40;0.40;;;6.60;99.90;;;;;;5065666;28;20072;-71
2022/04/05 08:37:53;;;;;;;0.90;0.40;;;6.60;99.90;;;;;;5065937;28;20036;-71
2022/04/05 08:40:21;;;;;;;0.40;0.30;;;6.50;99.90;;;;;;5065911;28;20119;-70
2022/04/05 08:42:50;;;;;;;0.22;0.22;;;6.60;99.90;;;;;;5065402;28;20044;-70
2022/04/05 08:45:30;;;;;;;0.38;0.35;;;6.60;99.90;;;;;;5062252;28;20555;-72
2022/04/05 08:47:58;;;;;;;1.45;0.30;;;6.60;99.90;;;;;;5064123;28;20040;-70
2022/04/05 08:50:27;;;;;;;0.75;0.50;;;6.60;99.90;;;;;;5064966;28;20036;-71
2022/04/05 08:52:58;;;;;;;1.40;0.50;;;6.60;99.90;;;;;;5064006;28;20608;-72
2022/04/05 08:55:24;;;;;;;1.60;0.50;;;6.70;99.90;;;;;;5051083;28;20075;-71
2022/04/05 08:57:50;;;;;;;;;;;6.80;99.90;;;;;;5065229;28;20952;-71
2022/04/05 09:00:19;;;;;;;0.60;0.40;;;6.80;99.90;;;;;;5065667;28;19916;-71
2022/04/05 09:03:05;;;;;;;1.42;0.45;;;6.80;99.90;;;;;;5064771;28;20036;-70
2022/04/05 09:05:31;;;;;;;1.17;0.60;;;6.90;99.90;;;;;;5045454;28;20128;-70
2022/04/05 09:08:15;;;;;;;;;;;6.90;99.90;;;;;;5071807;28;20064;-72
2022/04/05 09:10:47;;;;;;;0.73;0.50;;;6.90;99.90;;;;;;5055412;28;20416;-70
2022/04/05 09:13:17;;;;;;;1.50;0.50;;;6.90;99.90;;;;;;5062830;28;20651;-71
2022/04/05 09:15:46;;;;;;;0.57;0.40;;;7.00;99.90;;;;;;5065417;28;20051;-70
2022/04/05 09:18:25;;;;;;;3.88;0.57;;;7.00;99.90;;;;;;5063732;28;20099;-70
2022/04/05 09:20:51;;;;;;;1.40;0.50;;;7.00;99.90;;;;;;5063500;28;20086;-70
2022/04/05 09:23:27;;;;;;;;;;;7.10;99.90;;;;;;5064457;28;20582;-71
2022/04/05 09:25:58;;;;;;;0.68;0.55;;;7.20;99.90;;;;;;5063545;28;19920;-70
2022/04/05 09:28:48;;;;;;;3.75;0.70;;;7.20;99.90;;;;;;5063826;28;20044;-70
2022/04/05 09:31:20;;;;;;;0.70;0.50;;;7.20;99.90;;;;;;5063594;28;20090;-72
2022/04/05 09:34:04;;;;;;;0.65;0.50;;;7.30;99.90;;;;;;5059901;28;20761;-71
2022/04/05 09:36:37;;;;;;;2.72;0.82;;;7.30;99.90;;;;;;5046145;28;20049;-71
2022/04/05 09:39:23;;;;;;;1.00;0.90;;;7.30;99.90;;;;;;5064671;28;20059;-69
2022/04/05 09:41:49;;;;;;;2.03;1.63;;;7.50;99.90;;;;;;5063905;28;20036;-70
2022/04/05 09:44:29;;;;;;;2.60;1.65;;;7.60;99.90;;;;;;5065145;28;20854;-70
2022/04/05 09:47:14;;;;;;;5.65;3.08;;;7.70;99.90;;;;;;5065144;28;20040;-68
2022/04/05 09:49:42;;;;;;;4.93;3.22;;;7.70;99.90;;;;;;5063355;28;20041;-72
2022/04/05 09:52:27;;;;;;;8.00;3.97;;;7.70;99.90;;;;;;5062371;28;20036;-70
2022/04/05 09:54:54;;;;;;;3.95;2.90;;;7.70;99.90;;;;;;5062885;28;20044;-72
2022/04/05 09:57:31;;;;;;;10.75;3.88;;;7.80;99.90;;;;;;5062834;28;20032;-70
2022/04/05 10:00:29;;;;;;;7.10;3.55;;;7.80;99.90;;;;;;5062520;28;20040;-71
2022/04/05 10:03:08;;;;;;;4.75;3.50;;;7.70;99.90;;;;;;5030570;28;20390;-69
2022/04/05 10:05:35;;;;;;;4.65;3.10;;;7.80;99.90;;;;;;5063106;28;20079;-71
2022/04/05 10:08:03;;;;;;;5.30;3.20;;;7.80;99.90;;;;;;5087324;28;20052;-71
2022/04/05 10:10:29;;;;;;;4.43;2.95;;;7.80;99.90;;;;;;5065039;28;20778;-71
2022/04/05 10:12:54;;;;;;;;;;;7.90;99.90;;;;;;5065569;28;20119;-72
2022/04/05 10:15:21;;;;;;;4.22;2.38;;;7.80;99.90;;;;;;5065835;28;19963;-71
2022/04/05 10:17:48;;;;;;;7.03;2.88;;;7.80;99.90;;;;;;5062339;28;20044;-70
2022/04/05 10:20:17;;;;;;;4.32;3.05;;;7.80;99.90;;;;;;5063060;28;20044;-71
2022/04/05 10:22:44;;;;;;;4.85;2.83;;;7.90;99.90;;;;;;5057354;28;20044;-70
2022/04/05 10:25:10;;;;;;;4.70;2.72;;;8.00;99.90;;;;;;5060700;28;20044;-70
2022/04/05 10:27:36;;;;;;;;;;;8.00;99.90;;;;;;5063420;28;20190;-72
2022/04/05 10:30:10;;;;;;;7.30;4.28;;;8.00;99.90;;;;;;5062063;28;19926;-71
2022/04/05 10:32:48;;;;;;;4.28;3.05;;;8.00;99.90;;;;;;5060852;28;20048;-70
2022/04/05 10:35:15;;;;;;;4.35;3.00;;;7.90;99.90;;;;;;5063122;28;20041;-70
2022/04/05 10:37:41;;;;;;;4.38;2.95;;;7.90;99.90;;;;;;5078695;28;20040;-70
2022/04/05 10:40:10;;;;;;;;;;;7.80;99.90;;;;;;5061166;28;20507;-70
2022/04/05 10:42:40;;;;;;;4.20;2.92;;;7.90;99.90;;;;;;5057213;28;19917;-70
2022/04/05 10:45:14;;;;;;;3.90;2.67;;;7.90;99.90;;;;;;5062356;28;20661;-69
2022/04/05 10:48:13;;;;;;;3.88;2.85;;;7.80;99.90;;;;;;5058670;28;20036;-69
2022/04/05 10:50:45;;;;;;;6.47;3.47;;;7.80;99.90;;;;;;5043138;28;20060;-70
2022/04/05 10:53:19;;;;;;;3.30;2.40;;;7.80;99.90;;;;;;5047452;28;20047;-69
2022/04/05 10:56:03;;;;;;;5.25;3.35;;;7.80;99.90;;;;;;5061386;28;20738;-70
2022/04/05 10:58:31;;;;;;;5.45;3.25;;;7.80;99.90;;;;;;5061820;28;20123;-70
2022/04/05 11:01:23;;;;;;;6.25;4.00;;;7.80;99.90;;;;;;5076355;28;20531;-73
2022/04/05 11:04:35;;;;;;;6.60;4.28;;;7.70;99.90;;;;;;5071681;28;20033;-69
2022/04/05 11:07:01;;;;;;;5.90;4.00;;;7.80;99.90;;;;;;5045653;28;20041;-70
2022/04/05 11:09:28;;;;;;;;;;;7.90;99.90;;;;;;5063538;28;20534;-64
2022/04/05 11:11:54;;;;;;;10.30;7.07;;;8.00;99.90;;;;;;5061160;28;19963;-68
2022/04/05 11:14:39;;;;;;;11.73;7.82;;;7.90;99.90;;;;;;5059195;28;20080;-69
2022/04/05 11:17:06;;;;;;;12.73;8.63;;;8.00;99.90;;;;;;5059259;28;20044;-68
2022/04/05 11:19:35;;;;;;;13.80;9.23;;;8.10;99.90;;;;;;5062484;28;20054;-69
2022/04/05 11:22:05;;;;;;;15.10;10.05;;;8.10;99.90;;;;;;5062143;28;20049;-68
2022/04/05 11:25:06;;;;;;;15.25;9.90;;;8.00;99.90;;;;;;5062903;28;20068;-70
2022/04/05 11:27:42;;;;;;;15.80;9.25;;;7.90;99.90;;;;;;5063744;28;20036;-68
2022/04/05 11:30:26;;;;;;;15.75;9.93;;;7.90;99.90;;;;;;5062996;28;20060;-66
2022/04/05 11:33:12;;;;;;;19.35;10.15;;;8.00;99.90;;;;;;5062472;28;20039;-67
2022/04/05 11:35:44;;;;;;;10.23;7.13;;;8.10;99.90;;;;;;5062657;28;20043;-68
2022/04/05 11:38:28;;;;;;;11.48;7.35;;;8.40;99.90;;;;;;5062306;28;20061;-67
2022/04/05 11:41:00;;;;;;;11.82;7.78;;;8.40;99.90;;;;;;5056674;28;20035;-67
2022/04/05 11:43:34;;;;;;;15.15;8.02;;;8.40;99.90;;;;;;5071213;28;20113;-68
2022/04/05 11:46:28;;;;;;;13.13;7.50;;;8.50;99.90;;;;;;5054921;28;20493;-70
2022/04/05 11:49:13;;;;;;;12.40;8.27;;;8.60;99.90;;;;;;5058447;28;20060;-69
2022/04/05 11:51:46;;;;;;;10.43;7.43;;;8.50;99.90;;;;;;5060632;28;20128;-71
2022/04/05 11:54:18;;;;;;;10.63;7.55;;;8.50;99.90;;;;;;5061722;28;20044;-69
2022/04/05 11:56:45;;;;;;;10.30;7.22;;;8.50;99.90;;;;;;5053750;28;20051;-70
2022/04/05 11:59:13;;;;;;;11.73;6.80;;;8.60;99.90;;;;;;5045643;28;20032;-70
2022/04/05 12:01:40;;;;;;;10.73;7.25;;;8.70;99.90;;;;;;5061068;28;20093;-68
2022/04/05 12:04:11;;;;;;;12.57;8.30;;;8.90;99.90;;;;;;5061821;28;20045;-71
2022/04/05 12:06:42;;;;;;;9.82;7.35;;;9.00;99.90;;;;;;5061083;28;20036;-71
2022/04/05 12:09:13;;;;;;;9.85;7.28;;;8.90;99.90;;;;;;5053711;28;20083;-74
2022/04/05 12:11:41;;;;;;;10.00;7.47;;;8.90;99.90;;;;;;5060835;28;20128;-71
2022/04/05 12:14:11;;;;;;;9.52;6.72;;;8.90;99.90;;;;;;5061038;28;20042;-69
2022/04/05 12:16:53;;;;;;;11.65;7.20;;;8.80;99.90;;;;;;5059275;28;20044;-71
2022/04/05 12:19:32;;;;;;;8.98;6.80;;;8.80;99.90;;;;;;5048699;28;20703;-72
2022/04/05 12:22:02;;;;;;;11.13;6.40;;;8.80;99.90;;;;;;5064195;28;20054;-70
2022/04/05 12:24:30;;;;;;;11.15;7.13;;;8.80;99.90;;;;;;5051103;28;20195;-70
2022/04/05 12:26:56;;;;;;;10.32;6.95;;;8.90;99.90;;;;;;5064791;28;20040;-70
2022/04/05 12:29:23;;;;;;;10.68;7.55;;;9.00;99.90;;;;;;5065139;28;20675;-70
2022/04/05 12:31:50;;;;;;;10.70;7.80;;;8.90;99.90;;;;;;5063035;28;20041;-71
2022/04/05 12:34:16;;;;;;;10.45;7.60;;;9.00;99.90;;;;;;5064731;28;20040;-72
2022/04/05 12:36:55;;;;;;;11.02;8.52;;;8.90;99.90;;;;;;5044502;28;20048;-71
2022/04/05 12:39:26;;;;;;;10.80;7.80;;;9.00;99.90;;;;;;5058494;28;20496;-69
2022/04/05 12:42:00;;;;;;;11.00;7.90;;;9.00;99.90;;;;;;5059776;28;20047;-68
2022/04/05 12:44:46;;;;;;;12.07;8.30;;;9.00;99.90;;;;;;5061145;28;20089;-70
2022/04/05 12:47:15;;;;;;;12.40;7.97;;;9.10;99.90;;;;;;5064256;28;20754;-69
2022/04/05 12:49:51;;;;;;;11.73;7.95;;;9.10;99.90;;;;;;5063488;28;20040;-70
2022/04/05 12:52:21;;;;;;;11.45;8.10;;;9.00;99.90;;;;;;5056725;28;20093;-69
2022/04/05 12:54:48;;;;;;;12.25;7.35;;;8.90;99.90;;;;;;5063730;28;20148;-70
2022/04/05 12:57:19;;;;;;;9.82;6.47;;;8.90;99.90;;;;;;5064310;28;20399;-69
2022/04/05 12:59:47;;;;;;;15.55;6.68;;;8.90;99.90;;;;;;5064403;28;20333;-69
2022/04/05 13:02:25;;;;;;;9.32;6.43;;;8.90;99.90;;;;;;5064268;28;20082;-69
2022/04/05 13:06:19;;;;;;;8.40;6.10;;;8.80;99.90;;;;;;5063198;28;20058;-69
2022/04/05 13:07:54;;;;;;;9.98;5.80;;;8.70;99.90;;;;;;5065206;28;20570;-69
2022/04/05 13:10:20;;;;;;;7.93;5.72;;;8.80;99.90;;;;;;5064765;28;20120;-68